Pagina principală
METAR-TAF:

METAR-TAF

Aeroporturi :

Aeroportul Internațional Craiova

Craiova, România

Latitudine: 44-14N, longitudine: 023-52E, elevație: 192 m

Observații meteo curente

Raportul a fost făcut în urmă cu 15 de minute, la 16:00 UTC
Vânt 4 kt de la Nord-est
Temperatură 13°C
Umiditate 58%
Presiune 1008 hPa
Vizibilitate de 10 km sau mai mult
nu există nori sub 1.500 m și nici cumulonimbus

METAR: LRCV 201600Z 04004KT CAVOK 13/05 Q1008

Ora: 19:15 (16:15 UTC)

Prognoză

Raportul a fost făcut în urmă cu 2 ore și 15 de minute, la 14:00 UTC
Prognoză valabilă de la 20 ora 15 UTC la 21 ora 00 UTC
Vânt 4 kt din direcții variabile
Vizibilitate de 10 km sau mai mult
nu există nori sub 1.500 m și nici cumulonimbus
Probabilitate 40% :
Temporar
de la 20 ora 15 UTC la 20 ora 17 UTC
Nori împrăștiați la o înălțime de 3500 picior, Cumulonimbus.

TAF: LRCV 201400Z 2015/2100 VRB04KT CAVOK PROB40 TEMPO 2015/2017 SCT035CB

Observații și prognoze meteo pentru peste 4.000 de aeroporturi (rapoarte METAR și TAF).

Stațiile disponibile sunt reprezentate pe hartă prin puncte galbene și roșii.

Țineți indicatorul mouse-ului pe punctul dorit pentru a vedea denumirea stației.

Apoi, faceți clic pentru a vedea observațiile și prognozele meteorologice.

Pentru a schimba harta: Pentru mărire, faceți clic pe butoanele verzi cu cruce neagră; pentru micșorare, pe butonul verde cu o liniuță; pentru hărți învecinate, pe săgețile verzi.


METAR-TAF: